Time;durP1;ratioP1;P1;durP2;ratioP2;P2;SDS_P1;SDS_P2;PMS_P1;PMS_P2;Temp;Humidity;BMP_temperature;BMP_pressure;BME280_temperature;BME280_humidity;BME280_pressure;Samples;Min_cycle;Max_cycle;Signal;HPM_P1;HPM_P2
2022/01/23 00:00:33;;;;;;;5.63;5.13;;;2.00;96.30;;;;;;4900086;29;20460;-77
2022/01/23 00:03:01;;;;;;;4.87;4.30;;;2.00;96.30;;;;;;4897028;29;20460;-77
2022/01/23 00:05:33;;;;;;;5.20;4.70;;;1.90;96.30;;;;;;4897157;29;20420;-77
2022/01/23 00:07:59;;;;;;;9.03;4.27;;;1.80;96.30;;;;;;4881553;29;20413;-78
2022/01/23 00:10:24;;;;;;;5.73;5.10;;;1.80;96.30;;;;;;4883288;29;20432;-78
2022/01/23 00:12:55;;;;;;;4.57;4.17;;;1.80;96.30;;;;;;4900250;29;20653;-78
2022/01/23 00:18:05;;;;;;;4.40;4.00;;;1.90;96.30;;;;;;4900502;29;20400;-78
2022/01/23 00:20:31;;;;;;;4.10;3.70;;;1.90;96.30;;;;;;4883162;29;20421;-78
2022/01/23 00:23:00;;;;;;;4.67;4.00;;;1.80;96.30;;;;;;4888780;29;20261;-79
2022/01/23 00:30:58;;;;;;;3.83;3.50;;;1.90;96.30;;;;;;4900136;29;20448;-77
2022/01/23 00:33:24;;;;;;;5.17;3.53;;;1.80;96.30;;;;;;4899940;29;20419;-77
2022/01/23 00:35:50;;;;;;;3.63;3.17;;;1.90;96.30;;;;;;4909551;29;20780;-78
2022/01/23 00:38:17;;;;;;;4.27;3.87;;;1.80;96.30;;;;;;4917432;29;20183;-78
2022/01/23 00:40:45;;;;;;;3.83;3.30;;;1.80;96.30;;;;;;4917382;29;20551;-79
2022/01/23 00:43:26;;;;;;;3.43;2.63;;;1.80;96.30;;;;;;4918604;29;20468;-78
2022/01/23 00:45:57;;;;;;;3.13;2.57;;;1.70;96.30;;;;;;4918421;29;20479;-78
2022/01/23 00:48:28;;;;;;;2.23;2.03;;;1.70;96.30;;;;;;4918589;29;20425;-78
2022/01/23 00:50:54;;;;;;;1.60;1.50;;;1.80;96.30;;;;;;4918677;29;20460;-79
2022/01/23 00:53:20;;;;;;;2.13;1.60;;;1.80;96.30;;;;;;4917435;29;20959;-77
2022/01/23 00:55:46;;;;;;;2.07;1.93;;;1.70;96.30;;;;;;4917148;29;20173;-77
2022/01/23 00:58:13;;;;;;;3.17;1.90;;;1.70;96.30;;;;;;4918656;29;20172;-77
2022/01/23 05:04:41;;;;;;;1.77;1.67;;;1.30;96.30;;;;;;4894225;29;20981;-77
2022/01/23 05:07:10;;;;;;;5.13;1.97;;;1.20;96.30;;;;;;4899409;29;20398;-79
2022/01/23 05:09:36;;;;;;;2.30;1.43;;;1.20;96.30;;;;;;4899269;29;20444;-79
2022/01/23 05:12:05;;;;;;;2.60;1.60;;;1.30;96.30;;;;;;4896612;29;20433;-77
2022/01/23 05:14:38;;;;;;;1.77;1.63;;;1.30;96.30;;;;;;4863930;29;20462;-77
2022/01/23 05:17:06;;;;;;;2.50;2.10;;;1.20;96.30;;;;;;4880732;29;20387;-77
2022/01/23 05:19:33;;;;;;;1.70;1.60;;;1.20;96.30;;;;;;4864031;29;20418;-77
2022/01/23 05:22:17;;;;;;;2.37;1.87;;;1.20;96.30;;;;;;4863828;29;20505;-78
2022/01/23 05:24:47;;;;;;;2.30;1.83;;;1.30;96.30;;;;;;4880259;29;20942;-78
2022/01/23 05:27:13;;;;;;;2.00;1.90;;;1.20;96.30;;;;;;4880219;29;20426;-79
2022/01/23 05:29:38;;;;;;;1.87;1.67;;;1.30;96.30;;;;;;4864091;29;20477;-77
2022/01/23 06:39:16;;;;;;;2.20;2.07;;;1.30;96.30;;;;;;4896553;29;20477;-79
2022/01/23 06:41:41;;;;;;;2.07;1.97;;;1.20;96.30;;;;;;4910119;29;20436;-80
2022/01/23 06:44:07;;;;;;;2.10;1.97;;;1.20;96.30;;;;;;4899902;29;20208;-80
2022/01/23 06:46:33;;;;;;;2.20;2.00;;;1.20;96.30;;;;;;4916301;29;20215;-80
2022/01/23 06:48:59;;;;;;;2.23;2.10;;;1.20;96.30;;;;;;4899602;29;20271;-79
2022/01/23 06:51:25;;;;;;;2.43;2.00;;;1.20;96.30;;;;;;4899771;29;20440;-79
2022/01/23 06:53:52;;;;;;;1.37;1.27;;;1.20;96.30;;;;;;4917401;29;20915;-79
2022/01/23 06:56:17;;;;;;;1.90;1.80;;;1.10;96.30;;;;;;4915729;29;20192;-80
2022/01/23 06:58:43;;;;;;;4.50;1.87;;;1.20;96.30;;;;;;4916883;29;20416;-79
2022/01/23 07:01:09;;;;;;;2.23;2.00;;;1.20;96.30;;;;;;4915838;29;20200;-80
2022/01/23 07:03:35;;;;;;;1.83;1.73;;;1.20;96.30;;;;;;4900189;29;20208;-80
2022/01/23 07:06:00;;;;;;;2.17;1.80;;;1.20;96.30;;;;;;4915993;29;20665;-80
2022/01/23 07:08:26;;;;;;;3.20;2.40;;;1.20;96.30;;;;;;4915364;29;20421;-80
2022/01/23 07:10:52;;;;;;;2.03;1.93;;;1.20;96.30;;;;;;4916575;29;20275;-79
2022/01/23 07:13:17;;;;;;;2.53;2.30;;;1.20;96.30;;;;;;4900077;29;20196;-79
2022/01/23 07:15:43;;;;;;;2.50;2.30;;;1.20;96.30;;;;;;4917043;29;20223;-80
2022/01/23 07:18:08;;;;;;;1.90;1.80;;;1.20;96.30;;;;;;4900769;29;20215;-80
2022/01/23 07:20:34;;;;;;;2.07;1.97;;;1.20;96.30;;;;;;4917490;29;20196;-80
2022/01/23 07:23:00;;;;;;;1.77;1.67;;;1.20;96.30;;;;;;4900220;29;20200;-79
2022/01/23 07:25:25;;;;;;;2.40;2.20;;;1.20;96.30;;;;;;4899978;29;20935;-81
2022/01/23 07:27:54;;;;;;;1.97;1.77;;;1.20;96.30;;;;;;4899049;29;20176;-77
2022/01/23 07:30:31;;;;;;;1.63;1.53;;;1.20;96.30;;;;;;4915904;29;20172;-78
2022/01/23 07:32:57;;;;;;;2.00;1.80;;;1.20;96.30;;;;;;4915894;29;20411;-78
2022/01/23 07:35:22;;;;;;;2.50;2.30;;;1.30;96.30;;;;;;4915948;29;20416;-79
2022/01/23 07:37:48;;;;;;;1.90;1.60;;;1.30;96.30;;;;;;4930409;29;20652;-79
2022/01/23 07:40:14;;;;;;;3.70;2.40;;;1.20;96.30;;;;;;4915832;29;20185;-79
2022/01/23 07:42:40;;;;;;;2.50;1.70;;;1.30;96.30;;;;;;4915674;29;20211;-78
2022/01/23 07:45:06;;;;;;;2.13;1.90;;;1.30;96.30;;;;;;4929823;29;20819;-79
2022/01/23 07:47:32;;;;;;;4.00;2.40;;;1.20;96.30;;;;;;4894314;29;20192;-80
2022/01/23 07:49:58;;;;;;;2.33;2.03;;;1.30;96.30;;;;;;4896848;29;20418;-80
2022/01/23 07:52:24;;;;;;;2.10;1.93;;;1.20;96.30;;;;;;4896851;29;20201;-80
2022/01/23 07:54:50;;;;;;;2.10;1.90;;;1.20;96.30;;;;;;4879660;29;20188;-80
2022/01/23 07:57:15;;;;;;;2.40;2.17;;;1.30;96.30;;;;;;4891155;29;20424;-80
2022/01/23 07:59:41;;;;;;;2.57;2.20;;;1.30;96.30;;;;;;4915618;29;20267;-80
2022/01/23 08:02:06;;;;;;;3.07;2.10;;;1.30;96.30;;;;;;4898550;29;20272;-79
2022/01/23 08:04:32;;;;;;;2.33;2.13;;;1.30;96.30;;;;;;4915094;29;20180;-79
2022/01/23 08:07:10;;;;;;;2.60;2.20;;;1.30;96.30;;;;;;4915706;29;20211;-80
2022/01/23 08:09:36;;;;;;;2.67;2.20;;;1.40;96.30;;;;;;4915736;29;20195;-80
2022/01/23 08:12:03;;;;;;;3.60;1.67;;;1.40;96.30;;;;;;4930014;29;20448;-80
2022/01/23 08:14:28;;;;;;;3.20;2.10;;;1.40;96.30;;;;;;4898215;29;20503;-80
2022/01/23 08:16:54;;;;;;;2.37;2.17;;;1.40;96.30;;;;;;4898528;29;20560;-80
2022/01/23 08:19:19;;;;;;;2.87;2.40;;;1.40;96.30;;;;;;4915796;29;20632;-80
2022/01/23 08:21:44;;;;;;;2.50;2.30;;;1.40;96.30;;;;;;4898671;29;20200;-79
2022/01/23 08:24:11;;;;;;;2.90;2.60;;;1.40;96.30;;;;;;4915689;29;20298;-79
2022/01/23 08:26:37;;;;;;;2.90;2.60;;;1.40;96.30;;;;;;4898028;29;20169;-79
2022/01/23 08:29:04;;;;;;;2.57;2.37;;;1.50;96.30;;;;;;4900165;29;20499;-79
2022/01/23 08:31:30;;;;;;;2.60;2.40;;;1.50;96.30;;;;;;4883365;29;20444;-79
2022/01/23 08:33:55;;;;;;;3.20;2.60;;;1.50;96.30;;;;;;4914510;29;20852;-79
2022/01/23 08:36:21;;;;;;;5.40;2.10;;;1.50;96.30;;;;;;4927597;29;20227;-80
2022/01/23 08:38:46;;;;;;;1.87;1.77;;;1.60;96.30;;;;;;4901972;29;20621;-80
2022/01/23 08:43:38;;;;;;;2.97;2.70;;;1.60;96.30;;;;;;4918683;29;20358;-76
2022/01/23 08:46:04;;;;;;;2.90;2.70;;;1.60;96.30;;;;;;4918132;29;20548;-77
2022/01/23 08:48:30;;;;;;;4.63;3.33;;;1.60;96.30;;;;;;4896107;29;20181;-78
2022/01/23 08:50:56;;;;;;;3.13;2.83;;;1.70;96.30;;;;;;4901389;29;20952;-80
2022/01/23 08:53:21;;;;;;;2.97;2.77;;;1.70;96.30;;;;;;4884719;29;20433;-79
2022/01/23 08:55:47;;;;;;;2.73;2.53;;;1.70;96.30;;;;;;4901814;29;20593;-80
2022/01/23 08:58:14;;;;;;;3.20;2.90;;;1.80;96.30;;;;;;4916086;29;20217;-79
2022/01/23 09:00:39;;;;;;;2.70;2.10;;;1.90;96.30;;;;;;4915364;29;20528;-77
2022/01/23 09:03:05;;;;;;;2.40;2.20;;;1.80;96.30;;;;;;4921053;29;20560;-78
2022/01/23 09:05:31;;;;;;;2.07;1.97;;;1.80;96.30;;;;;;4901375;29;20741;-80
2022/01/23 09:07:56;;;;;;;2.30;2.10;;;1.80;96.30;;;;;;4903186;29;20218;-80
2022/01/23 09:10:28;;;;;;;2.70;2.03;;;1.80;96.30;;;;;;4888448;29;20183;-79
2022/01/23 09:13:08;;;;;;;2.07;1.87;;;1.80;96.30;;;;;;4915788;29;20192;-80
2022/01/23 09:15:34;;;;;;;3.17;2.20;;;1.90;96.30;;;;;;4913566;29;20424;-77
2022/01/23 09:17:59;;;;;;;2.40;1.90;;;1.90;96.30;;;;;;4899081;29;20413;-79
2022/01/23 09:20:25;;;;;;;2.47;2.10;;;1.90;96.30;;;;;;4899144;29;20514;-77
2022/01/23 09:22:50;;;;;;;1.93;1.83;;;1.90;96.30;;;;;;4899024;29;20240;-77
2022/01/23 09:25:16;;;;;;;2.63;2.13;;;2.00;96.30;;;;;;4898919;29;20215;-78
2022/01/23 09:27:41;;;;;;;2.10;1.83;;;2.10;96.30;;;;;;4917713;29;20609;-77
2022/01/23 09:30:17;;;;;;;2.00;1.67;;;2.10;96.30;;;;;;4917847;29;20177;-77
2022/01/23 09:32:43;;;;;;;2.07;1.87;;;2.00;96.30;;;;;;4900441;29;20196;-77
2022/01/23 09:35:10;;;;;;;3.40;2.20;;;2.10;96.30;;;;;;4917212;29;20429;-78
2022/01/23 09:37:35;;;;;;;1.93;1.83;;;2.10;96.30;;;;;;4900639;29;20436;-77
2022/01/23 09:40:01;;;;;;;1.77;1.67;;;2.20;96.30;;;;;;4916608;29;20424;-77
2022/01/23 09:42:34;;;;;;;1.97;1.70;;;2.20;96.30;;;;;;4917448;29;20285;-77
2022/01/23 09:45:04;;;;;;;1.80;1.70;;;2.20;96.30;;;;;;4900162;29;20468;-77
2022/01/23 09:47:30;;;;;;;1.67;1.57;;;2.00;96.30;;;;;;4900555;29;20965;-77
2022/01/23 09:49:57;;;;;;;1.77;1.67;;;2.00;96.30;;;;;;4916401;29;20416;-77
2022/01/23 09:52:23;;;;;;;2.00;1.63;;;2.00;96.30;;;;;;4916016;29;20811;-77
2022/01/23 09:55:00;;;;;;;2.03;1.83;;;2.10;96.30;;;;;;4916798;29;20420;-77
2022/01/23 09:57:32;;;;;;;1.93;1.80;;;2.20;96.30;;;;;;4917299;29;20167;-77
2022/01/23 10:00:00;;;;;;;2.60;1.90;;;2.10;96.30;;;;;;4917381;29;20397;-77
2022/01/23 10:02:28;;;;;;;2.97;1.70;;;2.20;96.30;;;;;;4916731;29;20559;-77
2022/01/23 10:04:54;;;;;;;2.67;1.80;;;2.20;96.30;;;;;;4916597;29;20471;-78
2022/01/23 10:07:21;;;;;;;2.97;2.27;;;2.20;96.30;;;;;;4900075;29;20412;-78
2022/01/23 10:09:52;;;;;;;2.03;1.93;;;2.20;96.30;;;;;;4917063;29;20904;-77
2022/01/23 10:12:20;;;;;;;2.80;2.43;;;2.20;96.30;;;;;;4917050;29;20488;-76
2022/01/23 10:14:46;;;;;;;2.60;2.37;;;2.20;96.30;;;;;;4899485;29;20434;-77
2022/01/23 10:17:11;;;;;;;2.20;2.00;;;2.30;96.30;;;;;;4899935;29;20797;-77
2022/01/23 10:19:38;;;;;;;1.97;1.87;;;2.30;96.30;;;;;;4899954;29;20706;-76
2022/01/23 10:22:05;;;;;;;2.07;1.93;;;2.30;96.30;;;;;;4916725;29;20188;-77
2022/01/23 10:24:31;;;;;;;2.77;1.77;;;2.30;96.30;;;;;;4899208;29;20480;-76
2022/01/23 10:26:58;;;;;;;3.80;1.90;;;2.40;96.30;;;;;;4916828;29;20433;-77
2022/01/23 10:29:26;;;;;;;2.17;1.50;;;2.50;96.30;;;;;;4916841;29;20160;-77
2022/01/23 10:32:21;;;;;;;2.23;1.97;;;2.70;96.30;;;;;;4917046;29;20471;-77
2022/01/23 10:35:00;;;;;;;2.50;2.30;;;2.90;96.30;;;;;;4899041;29;20844;-77
2022/01/23 10:37:38;;;;;;;2.20;2.00;;;3.00;96.30;;;;;;4899794;29;21028;-77
2022/01/23 10:40:23;;;;;;;2.47;2.10;;;2.90;96.30;;;;;;4916644;29;20932;-79
2022/01/23 10:48:26;;;;;;;2.27;1.83;;;2.80;96.30;;;;;;4916418;29;20395;-76
2022/01/23 10:51:11;;;;;;;2.23;2.03;;;2.60;96.30;;;;;;4916136;29;20535;-76
2022/01/23 10:53:58;;;;;;;2.60;2.40;;;2.70;96.30;;;;;;4916197;29;20535;-78
2022/01/23 10:56:28;;;;;;;2.80;2.50;;;2.70;96.30;;;;;;4898642;29;20416;-77
2022/01/23 10:59:11;;;;;;;2.27;2.07;;;2.60;96.30;;;;;;4916293;29;20401;-77
2022/01/23 11:02:03;;;;;;;2.77;2.47;;;2.60;96.30;;;;;;4899161;29;20934;-78
2022/01/23 11:04:29;;;;;;;2.43;2.23;;;2.70;96.30;;;;;;4915380;29;20393;-78
2022/01/23 11:07:05;;;;;;;2.30;2.10;;;2.60;96.30;;;;;;4899199;29;20438;-79
2022/01/23 11:09:36;;;;;;;2.07;1.87;;;2.60;96.30;;;;;;4898975;29;20210;-77
2022/01/23 11:12:13;;;;;;;2.97;2.07;;;2.70;96.30;;;;;;4916046;29;20431;-76
2022/01/23 11:17:25;;;;;;;2.50;2.30;;;2.70;96.30;;;;;;4916150;29;20911;-78
2022/01/23 11:19:57;;;;;;;2.30;2.07;;;2.60;96.30;;;;;;4915787;29;20412;-78
2022/01/23 11:22:26;;;;;;;1.90;1.80;;;2.60;96.30;;;;;;4915327;29;20467;-77
2022/01/23 11:24:56;;;;;;;2.40;2.17;;;2.70;96.30;;;;;;4898456;29;20431;-79
2022/01/23 11:27:22;;;;;;;2.20;2.00;;;2.70;96.30;;;;;;4915909;29;20417;-77
2022/01/23 11:30:00;;;;;;;2.20;2.00;;;2.70;96.30;;;;;;4915891;29;20412;-78
2022/01/23 11:32:32;;;;;;;2.27;2.17;;;2.60;96.30;;;;;;4898527;29;20454;-77
2022/01/23 11:35:05;;;;;;;2.47;2.30;;;2.60;96.30;;;;;;4898089;29;20421;-77
2022/01/23 11:37:32;;;;;;;2.73;2.43;;;2.60;96.30;;;;;;4916094;29;20459;-77
2022/01/23 11:40:06;;;;;;;2.73;2.50;;;2.70;96.30;;;;;;4916045;29;20428;-78
2022/01/23 12:07:06;;;;;;;1.43;1.33;;;2.70;96.30;;;;;;4787693;29;20790;-78
2022/01/23 12:16:53;;;;;;;1.50;1.40;;;2.60;96.30;;;;;;4839808;29;20459;-71
2022/01/23 12:19:21;;;;;;;2.40;2.20;;;2.50;96.30;;;;;;4936566;23;20503;-72
2022/01/23 12:21:49;;;;;;;3.53;1.57;;;2.50;96.30;;;;;;4913816;29;20425;-70
2022/01/23 12:24:16;;;;;;;2.47;1.50;;;2.50;96.30;;;;;;4906717;29;20515;-72
2022/01/23 12:26:43;;;;;;;1.80;1.60;;;2.50;96.30;;;;;;4918884;29;20933;-70
2022/01/23 12:29:12;;;;;;;3.00;2.10;;;2.40;96.30;;;;;;4918129;29;20424;-71
2022/01/23 12:31:39;;;;;;;2.07;1.70;;;2.50;96.30;;;;;;4918454;29;20494;-71
2022/01/23 12:34:04;;;;;;;2.03;1.40;;;2.50;96.30;;;;;;4920048;29;20484;-70
2022/01/23 12:36:32;;;;;;;2.03;1.87;;;2.50;96.30;;;;;;4902017;29;20424;-72
2022/01/23 12:39:19;;;;;;;1.73;1.63;;;2.50;96.30;;;;;;4919126;29;20176;-72
2022/01/23 12:41:50;;;;;;;1.73;1.63;;;2.50;96.30;;;;;;4917941;29;20463;-71
2022/01/23 12:44:28;;;;;;;1.97;1.67;;;2.40;96.30;;;;;;4918741;29;20448;-70
2022/01/23 12:47:21;;;;;;;1.70;1.60;;;2.40;96.30;;;;;;4918645;29;20912;-70
2022/01/23 12:55:24;;;;;;;2.20;2.00;;;2.50;96.30;;;;;;5211119;23;20524;-70
2022/01/23 12:57:50;;;;;;;1.40;1.30;;;2.50;96.30;;;;;;4918459;29;20827;-70
2022/01/23 13:00:24;;;;;;;2.10;1.60;;;2.50;96.30;;;;;;4918009;29;20547;-70
2022/01/23 13:02:52;;;;;;;1.20;1.10;;;2.60;96.30;;;;;;4917947;29;20256;-70
2022/01/23 13:05:18;;;;;;;1.60;1.50;;;2.60;96.30;;;;;;4917764;29;20420;-70
2022/01/23 13:15:24;;;;;;;1.40;1.30;;;2.60;96.30;;;;;;4899178;29;20421;-70
2022/01/23 13:18:09;;;;;;;1.67;1.57;;;2.60;96.30;;;;;;4882278;29;20428;-70
2022/01/23 13:33:39;;;;;;;1.30;1.20;;;2.60;96.30;;;;;;4942392;23;20500;-71
2022/01/23 13:36:09;;;;;;;1.10;1.00;;;2.60;96.30;;;;;;4917294;29;20417;-70
2022/01/23 13:38:36;;;;;;;1.27;1.17;;;2.60;96.30;;;;;;4917682;29;20463;-71
2022/01/23 13:41:13;;;;;;;1.27;1.17;;;2.60;96.30;;;;;;4917599;29;20788;-70
2022/01/23 13:59:48;;;;;;;1.57;1.47;;;2.40;96.30;;;;;;5096577;23;20566;-70
2022/01/23 14:02:34;;;;;;;1.60;1.50;;;2.40;96.30;;;;;;4899963;29;20417;-70
2022/01/23 14:05:22;;;;;;;1.60;1.50;;;2.40;96.30;;;;;;4916927;29;20503;-70
2022/01/23 14:07:54;;;;;;;1.70;1.40;;;2.40;96.30;;;;;;4917036;29;20487;-70
2022/01/23 14:10:23;;;;;;;4.80;1.73;;;2.40;96.30;;;;;;5242198;23;20591;-72
2022/01/23 14:12:53;;;;;;;2.80;1.70;;;2.50;96.30;;;;;;4896907;29;20481;-71
2022/01/23 14:15:22;;;;;;;1.60;1.50;;;2.40;96.30;;;;;;4914935;29;20447;-71
2022/01/23 14:18:08;;;;;;;2.37;1.90;;;2.40;96.30;;;;;;4899748;29;20417;-72
2022/01/23 14:20:37;;;;;;;1.63;1.53;;;2.40;96.30;;;;;;4916680;29;20432;-72
2022/01/23 14:23:16;;;;;;;1.70;1.50;;;2.40;96.30;;;;;;4916626;29;20495;-72
2022/01/23 14:25:57;;;;;;;1.20;1.10;;;2.40;96.30;;;;;;4899131;29;20435;-71
2022/01/23 14:28:39;;;;;;;3.27;1.60;;;2.40;96.30;;;;;;4885617;29;20429;-72
2022/01/23 14:31:17;;;;;;;1.40;1.30;;;2.40;96.30;;;;;;4897680;29;20512;-71
2022/01/23 14:33:43;;;;;;;1.30;1.20;;;2.40;96.30;;;;;;4901744;29;20900;-71
2022/01/23 14:36:15;;;;;;;1.70;1.60;;;2.40;96.30;;;;;;4903509;29;20523;-72
2022/01/23 14:38:56;;;;;;;1.83;1.60;;;2.30;96.30;;;;;;4897283;29;20432;-72
2022/01/23 14:41:24;;;;;;;2.73;1.30;;;2.30;96.30;;;;;;4902317;29;20802;-73
2022/01/23 14:43:50;;;;;;;2.90;1.43;;;2.30;96.30;;;;;;4915001;29;20470;-73
2022/01/23 14:46:15;;;;;;;1.77;1.67;;;2.30;96.30;;;;;;4915455;29;20499;-72
2022/01/23 14:48:46;;;;;;;1.80;1.43;;;2.20;96.30;;;;;;4916226;29;20207;-73
2022/01/23 14:51:17;;;;;;;3.10;1.30;;;2.30;96.30;;;;;;4916193;29;20220;-77
2022/01/23 14:53:42;;;;;;;1.90;1.33;;;2.20;96.30;;;;;;4916024;29;20405;-77
2022/01/23 14:56:11;;;;;;;1.77;1.57;;;2.30;96.30;;;;;;4916476;29;20455;-75
2022/01/23 14:58:37;;;;;;;1.50;1.40;;;2.30;96.30;;;;;;4910567;29;20239;-76
2022/01/23 15:01:05;;;;;;;1.67;1.50;;;2.30;96.30;;;;;;4899127;29;20471;-79
2022/01/23 15:03:32;;;;;;;2.73;2.20;;;2.30;96.30;;;;;;4891243;29;20605;-76
2022/01/23 15:05:59;;;;;;;1.60;1.50;;;2.30;96.30;;;;;;4912451;29;20420;-79
2022/01/23 15:08:25;;;;;;;2.03;1.83;;;2.30;96.30;;;;;;4899038;29;20420;-78
2022/01/23 15:10:54;;;;;;;2.43;2.23;;;2.30;96.30;;;;;;4898907;29;20460;-77
2022/01/23 15:13:19;;;;;;;2.30;2.10;;;2.20;96.30;;;;;;4916115;29;20599;-80
2022/01/23 15:15:46;;;;;;;1.87;1.70;;;2.20;96.30;;;;;;4915467;29;20412;-77
2022/01/23 15:18:13;;;;;;;1.80;1.70;;;2.20;96.30;;;;;;4899114;29;20195;-79
2022/01/23 15:20:40;;;;;;;2.17;1.70;;;2.20;96.30;;;;;;4899516;29;20479;-79
2022/01/23 15:23:06;;;;;;;2.33;2.13;;;2.20;96.30;;;;;;4917592;29;20467;-80
2022/01/23 15:25:32;;;;;;;2.20;2.00;;;2.30;96.30;;;;;;4917735;29;20814;-78
2022/01/23 15:27:58;;;;;;;2.27;2.07;;;2.30;96.30;;;;;;4900987;29;20416;-81
2022/01/23 15:30:25;;;;;;;2.03;1.83;;;2.20;96.30;;;;;;4896999;29;20453;-80
2022/01/23 15:32:53;;;;;;;1.70;1.60;;;2.20;96.30;;;;;;4897423;29;20509;-79
2022/01/23 15:35:21;;;;;;;2.80;1.93;;;2.20;96.30;;;;;;4886556;29;20421;-78
2022/01/23 15:37:47;;;;;;;2.30;2.10;;;2.20;96.30;;;;;;4916706;29;20420;-77
2022/01/23 15:40:15;;;;;;;2.40;1.97;;;2.20;96.30;;;;;;4888578;29;20440;-77
2022/01/23 15:42:43;;;;;;;2.93;2.43;;;2.20;96.30;;;;;;4899230;29;20449;-78
2022/01/23 15:45:09;;;;;;;2.70;2.50;;;2.20;96.30;;;;;;4894198;29;20416;-79
2022/01/23 15:47:35;;;;;;;2.90;2.70;;;2.20;96.30;;;;;;4919497;29;20909;-78
2022/01/23 15:50:01;;;;;;;2.23;2.00;;;2.10;96.30;;;;;;4919353;29;20536;-77
2022/01/23 15:52:28;;;;;;;2.67;2.47;;;2.10;96.30;;;;;;4902310;29;20610;-79
2022/01/23 15:54:53;;;;;;;2.70;2.00;;;2.10;96.30;;;;;;4900059;29;20409;-77
2022/01/23 15:57:19;;;;;;;2.93;2.60;;;2.10;96.30;;;;;;4900519;29;20427;-78
2022/01/23 15:59:44;;;;;;;2.40;2.20;;;2.10;96.30;;;;;;4901029;29;20275;-77
2022/01/23 16:02:10;;;;;;;2.40;2.20;;;2.10;96.30;;;;;;4900447;29;20177;-78
2022/01/23 16:04:37;;;;;;;1.90;1.60;;;2.10;96.30;;;;;;4899835;29;20215;-77
2022/01/23 16:07:05;;;;;;;1.63;1.53;;;2.10;96.30;;;;;;4900518;29;20556;-78
2022/01/23 16:09:30;;;;;;;1.53;1.40;;;2.00;96.30;;;;;;4900321;29;20432;-77
2022/01/23 16:11:56;;;;;;;1.57;1.47;;;2.20;96.30;;;;;;4900263;29;20451;-77
2022/01/23 16:14:22;;;;;;;2.07;1.90;;;2.20;96.30;;;;;;4898897;29;20181;-78
2022/01/23 16:16:48;;;;;;;1.40;1.30;;;2.10;96.30;;;;;;4899676;29;20229;-78
2022/01/23 16:19:15;;;;;;;2.27;2.07;;;2.10;96.30;;;;;;4899536;29;20834;-78
2022/01/23 16:21:41;;;;;;;1.50;1.40;;;2.20;96.30;;;;;;4906068;29;20436;-78
2022/01/23 16:24:07;;;;;;;2.13;1.90;;;2.20;96.30;;;;;;4883234;29;20464;-78
2022/01/23 16:26:33;;;;;;;2.73;2.50;;;2.20;96.30;;;;;;4899777;29;20472;-78
2022/01/23 16:28:59;;;;;;;1.90;1.67;;;2.20;96.30;;;;;;4883004;29;20184;-78
2022/01/23 16:31:24;;;;;;;6.10;1.93;;;2.20;96.30;;;;;;4899881;29;20181;-78
2022/01/23 16:33:50;;;;;;;1.80;1.70;;;2.10;96.30;;;;;;4899588;29;20275;-78
2022/01/23 16:36:16;;;;;;;2.40;1.87;;;2.10;96.30;;;;;;4899059;29;20200;-78
2022/01/23 16:38:41;;;;;;;3.43;2.10;;;2.10;96.30;;;;;;4884114;29;20185;-78
2022/01/23 16:41:08;;;;;;;3.60;1.77;;;2.10;96.30;;;;;;4883807;29;20211;-77
2022/01/23 16:43:35;;;;;;;1.80;1.70;;;2.10;96.30;;;;;;4907658;29;20220;-77
2022/01/23 16:46:02;;;;;;;1.83;1.73;;;2.00;96.30;;;;;;4907113;29;20443;-78
2022/01/23 16:48:27;;;;;;;2.43;2.10;;;2.00;96.30;;;;;;4900452;29;20421;-79
2022/01/23 16:50:55;;;;;;;1.90;1.80;;;2.00;96.30;;;;;;4882509;29;20445;-76
2022/01/23 16:53:20;;;;;;;2.13;1.80;;;2.00;96.30;;;;;;4899803;29;20185;-75
2022/01/23 16:55:46;;;;;;;1.97;1.77;;;2.00;96.30;;;;;;4899172;29;20421;-75
2022/01/23 16:58:11;;;;;;;2.10;1.90;;;2.00;96.30;;;;;;4899681;29;20188;-75
2022/01/23 17:00:37;;;;;;;1.97;1.70;;;2.00;96.30;;;;;;4899486;29;20208;-77
2022/01/23 17:03:04;;;;;;;2.13;1.93;;;2.00;96.30;;;;;;4900227;29;20300;-75
2022/01/23 17:05:30;;;;;;;2.10;1.83;;;2.00;96.30;;;;;;4899161;29;20177;-76
2022/01/23 17:07:56;;;;;;;1.70;1.60;;;1.90;96.30;;;;;;4899486;29;20448;-75
2022/01/23 17:10:22;;;;;;;1.73;1.63;;;1.90;96.30;;;;;;4899389;29;20488;-75
2022/01/23 17:12:47;;;;;;;4.37;1.60;;;1.90;96.30;;;;;;4904371;29;20203;-78
2022/01/23 17:15:13;;;;;;;2.23;1.90;;;1.90;96.30;;;;;;4891827;29;20196;-75
2022/01/23 17:17:38;;;;;;;3.80;2.23;;;2.00;96.30;;;;;;4898020;29;20724;-75
2022/01/23 17:20:05;;;;;;;1.80;1.53;;;1.90;96.30;;;;;;4911974;29;20279;-76
2022/01/23 17:22:31;;;;;;;2.10;1.80;;;2.00;96.30;;;;;;4916979;29;20259;-76
2022/01/23 17:24:56;;;;;;;1.60;1.50;;;2.00;96.30;;;;;;4900338;29;20493;-76
2022/01/23 17:27:23;;;;;;;1.67;1.40;;;2.00;96.30;;;;;;4915980;29;20188;-77
2022/01/23 17:29:50;;;;;;;2.20;1.80;;;2.00;96.30;;;;;;4917999;29;20197;-75
2022/01/23 17:32:20;;;;;;;1.33;1.23;;;2.00;96.30;;;;;;4901051;29;20416;-79
2022/01/23 17:34:46;;;;;;;1.57;1.40;;;1.90;96.30;;;;;;4916184;29;20412;-75
2022/01/23 17:37:11;;;;;;;1.60;1.43;;;1.90;96.30;;;;;;4906743;29;20428;-75
2022/01/23 17:39:37;;;;;;;1.70;1.60;;;1.90;96.30;;;;;;4898583;29;20540;-75
2022/01/23 17:42:03;;;;;;;2.10;1.93;;;1.90;96.30;;;;;;4898842;29;20181;-75
2022/01/23 17:44:30;;;;;;;2.10;1.80;;;1.90;96.30;;;;;;4881631;29;20209;-75
2022/01/23 17:47:08;;;;;;;2.30;2.10;;;2.00;96.30;;;;;;4887688;29;20421;-76
2022/01/23 17:49:41;;;;;;;3.63;2.70;;;2.00;96.30;;;;;;4916204;29;20448;-76
2022/01/23 17:52:09;;;;;;;2.40;2.07;;;1.90;96.30;;;;;;4917509;29;20400;-76
2022/01/23 17:54:35;;;;;;;5.30;2.10;;;2.00;96.30;;;;;;4917043;29;20928;-78
2022/01/23 17:57:01;;;;;;;1.87;1.77;;;2.00;96.30;;;;;;4905445;29;20461;-77
2022/01/23 17:59:29;;;;;;;2.13;1.93;;;2.00;96.30;;;;;;4898311;29;20500;-76
2022/01/23 18:01:55;;;;;;;2.40;2.20;;;1.90;96.30;;;;;;4880681;29;20185;-75
2022/01/23 18:04:20;;;;;;;1.70;1.60;;;2.00;96.30;;;;;;4898063;29;20823;-75
2022/01/23 18:06:46;;;;;;;1.80;1.70;;;2.00;96.30;;;;;;4885731;29;20424;-77
2022/01/23 18:09:12;;;;;;;2.00;1.77;;;2.00;96.30;;;;;;4898915;29;20217;-77
2022/01/23 18:11:38;;;;;;;2.60;2.40;;;2.00;96.30;;;;;;4881685;29;20868;-77
2022/01/23 18:14:09;;;;;;;2.67;2.47;;;2.00;96.30;;;;;;4898993;29;20533;-77
2022/01/23 18:16:35;;;;;;;2.67;2.47;;;2.00;96.30;;;;;;4904971;29;20191;-78
2022/01/23 18:19:01;;;;;;;2.93;2.73;;;1.90;96.30;;;;;;4899868;29;20458;-79
2022/01/23 18:21:27;;;;;;;2.70;2.50;;;2.00;96.30;;;;;;4906960;29;20449;-79
2022/01/23 18:23:52;;;;;;;2.70;2.50;;;2.00;96.30;;;;;;4898395;29;21099;-78
2022/01/23 18:26:18;;;;;;;4.13;2.20;;;2.00;96.30;;;;;;4881643;29;20189;-79
2022/01/23 18:28:47;;;;;;;2.10;1.73;;;2.00;96.30;;;;;;4883151;29;20656;-78
2022/01/23 18:31:13;;;;;;;2.63;2.43;;;2.00;96.30;;;;;;4882172;29;20848;-78
2022/01/23 18:33:39;;;;;;;2.00;1.90;;;2.00;96.30;;;;;;4898865;29;20472;-79
2022/01/23 18:36:05;;;;;;;2.40;1.97;;;2.00;96.30;;;;;;4892849;29;20219;-78
2022/01/23 18:38:30;;;;;;;2.43;2.20;;;2.00;96.30;;;;;;4915595;29;20460;-78
2022/01/23 18:40:56;;;;;;;2.20;2.00;;;2.00;96.30;;;;;;4915467;29;20207;-78
2022/01/23 18:43:23;;;;;;;1.67;1.53;;;2.00;96.30;;;;;;4916869;29;20646;-78
2022/01/23 18:45:48;;;;;;;1.70;1.60;;;2.10;96.30;;;;;;4916945;29;20439;-80
2022/01/23 18:48:14;;;;;;;3.10;2.63;;;2.10;96.30;;;;;;4916725;29;20941;-78
2022/01/23 18:50:40;;;;;;;3.30;2.50;;;2.10;96.30;;;;;;4903421;29;20585;-79
2022/01/23 18:53:18;;;;;;;3.43;3.03;;;2.10;96.30;;;;;;4919347;29;20186;-78
2022/01/23 18:55:46;;;;;;;4.50;3.67;;;2.10;96.30;;;;;;4919364;29;20416;-78
2022/01/23 18:58:16;;;;;;;3.67;3.37;;;2.10;96.30;;;;;;4916583;29;20789;-78
2022/01/23 19:00:47;;;;;;;5.23;4.70;;;2.10;96.30;;;;;;4899425;29;20887;-78
2022/01/23 19:03:25;;;;;;;4.20;3.80;;;2.10;96.30;;;;;;4898764;29;20495;-78
2022/01/23 19:05:57;;;;;;;5.10;4.30;;;2.00;96.30;;;;;;4888149;29;20440;-78
2022/01/23 19:08:23;;;;;;;7.50;5.77;;;2.00;96.30;;;;;;4902034;29;20413;-78
2022/01/23 19:10:49;;;;;;;8.73;6.40;;;2.10;96.30;;;;;;4891342;29;20464;-78
2022/01/23 19:13:17;;;;;;;8.53;6.63;;;2.10;96.30;;;;;;4898887;29;20637;-78
2022/01/23 19:15:44;;;;;;;6.47;5.23;;;2.10;96.30;;;;;;4915551;29;20428;-78
2022/01/23 19:18:10;;;;;;;9.10;5.57;;;2.10;96.30;;;;;;4916226;29;20464;-77
2022/01/23 19:20:36;;;;;;;5.83;4.67;;;2.10;96.30;;;;;;4916079;29;20479;-78
2022/01/23 19:23:02;;;;;;;3.10;2.87;;;2.00;96.30;;;;;;4915657;29;20479;-78
2022/01/23 19:25:29;;;;;;;3.50;3.20;;;2.10;96.30;;;;;;4898378;29;20172;-78
2022/01/23 19:27:58;;;;;;;6.20;4.07;;;2.10;96.30;;;;;;4899059;29;20770;-78
2022/01/23 19:30:24;;;;;;;5.10;4.20;;;2.10;96.30;;;;;;4914408;29;20447;-78
2022/01/23 19:32:54;;;;;;;4.07;3.67;;;2.00;96.30;;;;;;4915936;29;20475;-78
2022/01/23 19:35:25;;;;;;;5.47;4.97;;;2.10;96.30;;;;;;4897871;29;20479;-78
2022/01/23 19:37:55;;;;;;;4.13;3.83;;;2.00;96.30;;;;;;4915955;29;20412;-78
2022/01/23 19:40:31;;;;;;;4.30;3.90;;;2.00;96.30;;;;;;4898664;29;20566;-78
2022/01/23 19:43:26;;;;;;;4.73;4.23;;;2.00;96.30;;;;;;4901045;29;20498;-79
2022/01/23 19:45:43;;;;;;;4.23;3.57;;;2.00;96.30;;;;;;4915464;29;20471;-79
2022/01/23 19:51:10;;;;;;;4.40;3.73;;;2.00;96.30;;;;;;4837476;29;20440;-79